Aviation Digital Data Service (ADDS)

Output produced by METARs form (1438 UTC 25 June 2019)
found at http://www.aviationweather.gov/metar/data/
 
Forecast for: UIII (IRKUTSK , RU)
Text: TAF UIII 251400Z 2515/2615 32006MPS 3100 -SHRA BKN004 BKN011CB
Forecast period: 1500 UTC 25 June 2019 to 1500 UTC 26 June 2019
Forecast type: FROM: standard forecast or significant change
Winds: from the NW (320 degrees) at 14 MPH (12 knots; 6.2 m/s)
Visibility: 1.93 miles (3.11 km)
Ceiling: 400 feet AGL
Clouds: broken clouds at 400 feet AGL
broken clouds at 1100 feet AGL
Weather: -SHRA  (light rain showers)
Text: TEMPO 2515/2602 VRB01MPS 0900 SHRA FG VV001
Forecast period: 1500 UTC 25 June 2019 to 0200 UTC 26 June 2019
Forecast type: TEMPORARY: The following changes expected for less than half the time period
Winds: variable direction winds at 2 MPH (2 knots; 1.0 m/s)
Visibility: 0.56 miles (0.90 km)
Ceiling: indefinite ceiling with vertical visibility of 100 feet AGL
Clouds: obscured sky
Weather: SHRA FG  (rain showers, fog)